Hamburg Express — DFKM2 — position and weather

sailwx.info

Track history (hours):
 
Tides and Currents Weather Stations Pressure Air Temp Water Temp Dewpoint Dewpoint Depression Visibility Wind Speed Wind Dir Waves Ship Positions

Hamburg Express

Last reported at 2016-Dec-03 05:13 UTC. Time now 2016-Dec-03 06:50 UTC.
Position N 29°19' E 122°31'.

Length 366 m; draft 12.5 m.

Type: Cargo ship. MMSI: 218774000.

Date/timePositionNaut miles runAvg speedWind from/ knotsBaromVisibWave heightAir tempDewpointWater temp
2016-Dec-03 05:13N 29°19' E 122°31'1515.8
2016-Dec-03 04:17N 29°33' E 122°33'912.8
2016-Dec-03 03:34N 29°41' E 122°27'1211.7
2016-Dec-03 02:34N 29°47' E 122°16'1110.9
2016-Dec-03 01:33N 29°55' E 122°07'1211.9
2016-Dec-03 00:33N 29°57' E 121°54'3 3.1
2016-Dec-02 23:32N 29°57' E 121°50'0 0.0
2016-Dec-02 22:32N 29°57' E 121°50'0 0.0
2016-Dec-02 21:29N 29°57' E 121°50'0 0.0
2016-Dec-02 20:17N 29°57' E 121°50'0 0.0
2016-Dec-02 19:32N 29°57' E 121°50'0 0.0
2016-Dec-02 18:32N 29°57' E 121°50'0 0.0
2016-Dec-02 17:29N 29°57' E 121°50'0 0.0
2016-Dec-02 16:29N 29°57' E 121°50'0 0.0
2016-Dec-02 15:29N 29°57' E 121°50'0 0.0
2016-Dec-02 14:26N 29°57' E 121°50'0 0.0
2016-Dec-02 13:32N 29°57' E 121°50'0 0.0
2016-Dec-02 12:08N 29°57' E 121°50'0 0.0
2016-Dec-02 11:08N 29°57' E 121°50'0 0.0
2016-Dec-02 10:17N 29°57' E 121°50'0 0.0
2016-Dec-02 09:17N 29°57' E 121°50'3 3.4
2016-Dec-02 08:32N 29°58' E 121°53'3 2.7
2016-Dec-02 07:33N 29°58' E 121°56'2019.0
2016-Dec-02 06:29N 29°48' E 122°16'6 6.2
2016-Dec-02 05:31N 29°45' E 122°22'7 7.0
2016-Dec-02 04:29N 29°44' E 122°30'0 0.3
2016-Dec-02 03:19N 29°44' E 122°30'0 0.1
2016-Dec-02 02:30N 29°43' E 122°30'5 5.6
2016-Dec-02 01:33N 29°45' E 122°36'2 0.5
2016-Dec-01 21:20N 29°46' E 122°38'0 0.0
2016-Dec-01 18:26N 29°46' E 122°38'0 0.0
2016-Dec-01 17:20N 29°46' E 122°38'0 0.0
2016-Dec-01 13:22N 29°46' E 122°38'0 0.0
2016-Dec-01 12:29N 29°46' E 122°38'11 2.6
2016-Dec-01 08:21N 29°54' E 122°46'2915.1
2016-Dec-01 06:26N 30°22' E 122°53'1819.2
2016-Dec-01 05:29N 30°31' E 122°34'  
2016-Nov-24 12:00N 28°12' E 123°06'22318.6 050 / 301023.1 5.4 15.2 9.822.6
2016-Nov-24 00:00N 25°06' E 120°48'14015.8 040 / 501021.1 5.4 19.215.123.3
2016-Nov-23 15:09N 22°54' E 119°58'1219.6
2016-Nov-23 14:34N 22°44' E 120°03'1616.0
2016-Nov-23 13:34N 22°33' E 120°16'3 3.1
2016-Nov-23 12:28N 22°33' E 120°20'0 0.0
2016-Nov-23 11:28N 22°33' E 120°20'0 0.1
2016-Nov-23 10:28N 22°33' E 120°20'0 0.1
2016-Nov-23 09:22N 22°33' E 120°20'0 0.1
2016-Nov-23 08:28N 22°33' E 120°20'0 0.0
2016-Nov-23 07:28N 22°33' E 120°20'0 0.0
2016-Nov-23 06:22N 22°33' E 120°20'  
Track history (hours):
 
Tides and Currents Weather Stations Pressure Air Temp Water Temp Dewpoint Dewpoint Depression Visibility Wind Speed Wind Dir Waves Ship Positions

Hamburg Express

Last reported at 2016-Dec-03 05:13 UTC. Time now 2016-Dec-03 06:50 UTC.
Position N 29°19' E 122°31'.

Length 366 m; draft 12.5 m.

Type: Cargo ship. MMSI: 218774000.

Date/timePositionNaut miles runAvg speedWind from/ knotsBaromVisibWave heightAir tempDewpointWater temp
2016-Dec-03 05:13N 29°19' E 122°31'1515.8
2016-Dec-03 04:17N 29°33' E 122°33'912.8
2016-Dec-03 03:34N 29°41' E 122°27'1211.7
2016-Dec-03 02:34N 29°47' E 122°16'1110.9
2016-Dec-03 01:33N 29°55' E 122°07'1211.9
2016-Dec-03 00:33N 29°57' E 121°54'3 3.1
2016-Dec-02 23:32N 29°57' E 121°50'0 0.0
2016-Dec-02 22:32N 29°57' E 121°50'0 0.0
2016-Dec-02 21:29N 29°57' E 121°50'0 0.0
2016-Dec-02 20:17N 29°57' E 121°50'0 0.0
2016-Dec-02 19:32N 29°57' E 121°50'0 0.0
2016-Dec-02 18:32N 29°57' E 121°50'0 0.0
2016-Dec-02 17:29N 29°57' E 121°50'0 0.0
2016-Dec-02 16:29N 29°57' E 121°50'0 0.0
2016-Dec-02 15:29N 29°57' E 121°50'0 0.0
2016-Dec-02 14:26N 29°57' E 121°50'0 0.0
2016-Dec-02 13:32N 29°57' E 121°50'0 0.0
2016-Dec-02 12:08N 29°57' E 121°50'0 0.0
2016-Dec-02 11:08N 29°57' E 121°50'0 0.0
2016-Dec-02 10:17N 29°57' E 121°50'0 0.0
2016-Dec-02 09:17N 29°57' E 121°50'3 3.4
2016-Dec-02 08:32N 29°58' E 121°53'3 2.7
2016-Dec-02 07:33N 29°58' E 121°56'2019.0
2016-Dec-02 06:29N 29°48' E 122°16'6 6.2
2016-Dec-02 05:31N 29°45' E 122°22'7 7.0
2016-Dec-02 04:29N 29°44' E 122°30'0 0.3
2016-Dec-02 03:19N 29°44' E 122°30'0 0.1
2016-Dec-02 02:30N 29°43' E 122°30'5 5.6
2016-Dec-02 01:33N 29°45' E 122°36'2 0.5
2016-Dec-01 21:20N 29°46' E 122°38'0 0.0
2016-Dec-01 18:26N 29°46' E 122°38'0 0.0
2016-Dec-01 17:20N 29°46' E 122°38'0 0.0
2016-Dec-01 13:22N 29°46' E 122°38'0 0.0
2016-Dec-01 12:29N 29°46' E 122°38'11 2.6
2016-Dec-01 08:21N 29°54' E 122°46'2915.1
2016-Dec-01 06:26N 30°22' E 122°53'1819.2
2016-Dec-01 05:29N 30°31' E 122°34'  
2016-Nov-24 12:00N 28°12' E 123°06'22318.6 050 / 301023.1 5.4 15.2 9.822.6
2016-Nov-24 00:00N 25°06' E 120°48'14015.8 040 / 501021.1 5.4 19.215.123.3
2016-Nov-23 15:09N 22°54' E 119°58'1219.6
2016-Nov-23 14:34N 22°44' E 120°03'1616.0
2016-Nov-23 13:34N 22°33' E 120°16'3 3.1
2016-Nov-23 12:28N 22°33' E 120°20'0 0.0
2016-Nov-23 11:28N 22°33' E 120°20'0 0.1
2016-Nov-23 10:28N 22°33' E 120°20'0 0.1
2016-Nov-23 09:22N 22°33' E 120°20'0 0.1
2016-Nov-23 08:28N 22°33' E 120°20'0 0.0
2016-Nov-23 07:28N 22°33' E 120°20'0 0.0
2016-Nov-23 06:22N 22°33' E 120°20'  

Dump ship's entire track history